sensor_id;sensor_type;location;lat;lon;timestamp;P1;durP1;ratioP1;P2;durP2;ratioP2
63817;SDS011;53093;55.092;73.476;2022-11-11T00:00:06;23.23;;;15.48;;
63817;SDS011;53093;55.092;73.476;2022-11-11T00:03:03;25.08;;;15.77;;
63817;SDS011;53093;55.092;73.476;2022-11-11T00:06:02;23.00;;;15.32;;
63817;SDS011;53093;55.092;73.476;2022-11-11T00:08:48;24.02;;;15.48;;
63817;SDS011;53093;55.092;73.476;2022-11-11T00:11:35;23.50;;;15.15;;
63817;SDS011;53093;55.092;73.476;2022-11-11T00:14:30;23.20;;;14.80;;
63817;SDS011;53093;55.092;73.476;2022-11-11T00:17:26;22.52;;;14.35;;
63817;SDS011;53093;55.092;73.476;2022-11-11T00:20:29;22.70;;;14.45;;
63817;SDS011;53093;55.092;73.476;2022-11-11T00:23:33;22.55;;;13.80;;
63817;SDS011;53093;55.092;73.476;2022-11-11T00:26:47;22.88;;;13.57;;
63817;SDS011;53093;55.092;73.476;2022-11-11T00:29:37;22.48;;;13.68;;
63817;SDS011;53093;55.092;73.476;2022-11-11T00:32:22;23.45;;;12.88;;
63817;SDS011;53093;55.092;73.476;2022-11-11T00:35:08;26.40;;;14.10;;
63817;SDS011;53093;55.092;73.476;2022-11-11T00:38:13;21.52;;;14.00;;
63817;SDS011;53093;55.092;73.476;2022-11-11T00:41:26;22.65;;;13.43;;
63817;SDS011;53093;55.092;73.476;2022-11-11T00:44:21;23.67;;;13.50;;
63817;SDS011;53093;55.092;73.476;2022-11-11T00:47:07;24.48;;;14.73;;
63817;SDS011;53093;55.092;73.476;2022-11-11T00:50:13;24.95;;;14.32;;
63817;SDS011;53093;55.092;73.476;2022-11-11T00:53:27;25.45;;;15.23;;
63817;SDS011;53093;55.092;73.476;2022-11-11T00:56:19;27.60;;;16.35;;
63817;SDS011;53093;55.092;73.476;2022-11-11T00:59:05;30.33;;;17.65;;
63817;SDS011;53093;55.092;73.476;2022-11-11T01:01:50;31.65;;;16.98;;
63817;SDS011;53093;55.092;73.476;2022-11-11T01:04:35;30.58;;;17.80;;
63817;SDS011;53093;55.092;73.476;2022-11-11T01:07:26;31.50;;;17.98;;
63817;SDS011;53093;55.092;73.476;2022-11-11T01:10:11;29.73;;;18.25;;
63817;SDS011;53093;55.092;73.476;2022-11-11T01:12:57;33.90;;;19.48;;
63817;SDS011;53093;55.092;73.476;2022-11-11T01:16:00;33.83;;;19.00;;
63817;SDS011;53093;55.092;73.476;2022-11-11T01:18:46;35.45;;;20.05;;
63817;SDS011;53093;55.092;73.476;2022-11-11T01:21:31;35.05;;;20.50;;
63817;SDS011;53093;55.092;73.476;2022-11-11T01:24:17;36.45;;;20.83;;
63817;SDS011;53093;55.092;73.476;2022-11-11T01:27:02;33.97;;;19.70;;
63817;SDS011;53093;55.092;73.476;2022-11-11T01:29:48;38.55;;;21.40;;
63817;SDS011;53093;55.092;73.476;2022-11-11T01:32:33;39.25;;;22.52;;
63817;SDS011;53093;55.092;73.476;2022-11-11T01:35:18;38.63;;;21.25;;
63817;SDS011;53093;55.092;73.476;2022-11-11T01:38:04;35.80;;;20.75;;
63817;SDS011;53093;55.092;73.476;2022-11-11T01:40:59;32.28;;;19.08;;
63817;SDS011;53093;55.092;73.476;2022-11-11T01:43:44;33.22;;;19.40;;
63817;SDS011;53093;55.092;73.476;2022-11-11T01:46:46;35.55;;;20.45;;
63817;SDS011;53093;55.092;73.476;2022-11-11T01:52:23;34.47;;;19.63;;
63817;SDS011;53093;55.092;73.476;2022-11-11T01:55:12;30.52;;;17.30;;
63817;SDS011;53093;55.092;73.476;2022-11-11T01:58:00;34.90;;;20.05;;
63817;SDS011;53093;55.092;73.476;2022-11-11T02:00:47;31.70;;;18.45;;
63817;SDS011;53093;55.092;73.476;2022-11-11T02:03:38;30.27;;;18.35;;
63817;SDS011;53093;55.092;73.476;2022-11-11T02:06:34;28.85;;;16.70;;
63817;SDS011;53093;55.092;73.476;2022-11-11T02:09:20;28.38;;;17.50;;
63817;SDS011;53093;55.092;73.476;2022-11-11T02:12:07;26.70;;;17.30;;
63817;SDS011;53093;55.092;73.476;2022-11-11T02:15:12;28.85;;;17.63;;
63817;SDS011;53093;55.092;73.476;2022-11-11T02:17:57;28.17;;;17.20;;
63817;SDS011;53093;55.092;73.476;2022-11-11T02:24:11;26.63;;;16.23;;
63817;SDS011;53093;55.092;73.476;2022-11-11T02:26:36;27.83;;;17.50;;
63817;SDS011;53093;55.092;73.476;2022-11-11T02:29:22;32.45;;;18.70;;
63817;SDS011;53093;55.092;73.476;2022-11-11T02:32:08;28.88;;;17.33;;
63817;SDS011;53093;55.092;73.476;2022-11-11T02:34:53;29.98;;;18.35;;
63817;SDS011;53093;55.092;73.476;2022-11-11T02:37:39;28.17;;;17.58;;
63817;SDS011;53093;55.092;73.476;2022-11-11T02:43:11;29.25;;;17.42;;
63817;SDS011;53093;55.092;73.476;2022-11-11T02:45:57;29.92;;;17.75;;
63817;SDS011;53093;55.092;73.476;2022-11-11T02:48:43;29.00;;;17.73;;
63817;SDS011;53093;55.092;73.476;2022-11-11T02:51:28;28.33;;;17.30;;
63817;SDS011;53093;55.092;73.476;2022-11-11T02:54:14;28.13;;;16.65;;
63817;SDS011;53093;55.092;73.476;2022-11-11T02:57:00;28.88;;;16.98;;
63817;SDS011;53093;55.092;73.476;2022-11-11T02:59:57;25.40;;;16.50;;
63817;SDS011;53093;55.092;73.476;2022-11-11T03:02:47;26.33;;;16.80;;
63817;SDS011;53093;55.092;73.476;2022-11-11T03:05:42;24.80;;;15.93;;
63817;SDS011;53093;55.092;73.476;2022-11-11T03:08:27;25.60;;;16.67;;
63817;SDS011;53093;55.092;73.476;2022-11-11T03:11:12;25.35;;;16.25;;
63817;SDS011;53093;55.092;73.476;2022-11-11T03:13:58;22.63;;;15.38;;
63817;SDS011;53093;55.092;73.476;2022-11-11T03:16:44;26.77;;;16.90;;
63817;SDS011;53093;55.092;73.476;2022-11-11T03:19:48;28.10;;;16.60;;
63817;SDS011;53093;55.092;73.476;2022-11-11T03:22:33;29.15;;;16.70;;
63817;SDS011;53093;55.092;73.476;2022-11-11T03:25:18;21.98;;;15.10;;
63817;SDS011;53093;55.092;73.476;2022-11-11T03:28:22;23.13;;;15.43;;
63817;SDS011;53093;55.092;73.476;2022-11-11T03:31:09;21.90;;;14.88;;
63817;SDS011;53093;55.092;73.476;2022-11-11T03:34:00;24.77;;;16.20;;
63817;SDS011;53093;55.092;73.476;2022-11-11T03:37:03;22.83;;;15.05;;
63817;SDS011;53093;55.092;73.476;2022-11-11T03:40:07;25.20;;;15.27;;
63817;SDS011;53093;55.092;73.476;2022-11-11T03:42:57;22.88;;;15.55;;
63817;SDS011;53093;55.092;73.476;2022-11-11T03:45:43;23.38;;;15.68;;
63817;SDS011;53093;55.092;73.476;2022-11-11T03:48:29;24.00;;;16.40;;
63817;SDS011;53093;55.092;73.476;2022-11-11T03:51:15;24.80;;;16.70;;
63817;SDS011;53093;55.092;73.476;2022-11-11T03:54:00;28.65;;;17.65;;
63817;SDS011;53093;55.092;73.476;2022-11-11T03:56:45;24.73;;;16.98;;
63817;SDS011;53093;55.092;73.476;2022-11-11T03:59:35;29.27;;;18.50;;
63817;SDS011;53093;55.092;73.476;2022-11-11T04:02:20;26.80;;;17.52;;
63817;SDS011;53093;55.092;73.476;2022-11-11T04:05:24;27.52;;;17.00;;
63817;SDS011;53093;55.092;73.476;2022-11-11T04:08:29;27.40;;;17.42;;
63817;SDS011;53093;55.092;73.476;2022-11-11T04:11:37;26.50;;;17.10;;
63817;SDS011;53093;55.092;73.476;2022-11-11T04:14:22;23.58;;;15.93;;
63817;SDS011;53093;55.092;73.476;2022-11-11T04:17:26;25.40;;;16.27;;
63817;SDS011;53093;55.092;73.476;2022-11-11T04:20:12;24.35;;;16.08;;
63817;SDS011;53093;55.092;73.476;2022-11-11T04:23:15;24.65;;;16.25;;
63817;SDS011;53093;55.092;73.476;2022-11-11T04:26:01;22.02;;;14.95;;
63817;SDS011;53093;55.092;73.476;2022-11-11T04:28:56;23.50;;;15.32;;
63817;SDS011;53093;55.092;73.476;2022-11-11T04:32:04;20.73;;;13.95;;
63817;SDS011;53093;55.092;73.476;2022-11-11T04:35:09;20.48;;;14.35;;
63817;SDS011;53093;55.092;73.476;2022-11-11T04:37:56;21.00;;;14.70;;
63817;SDS011;53093;55.092;73.476;2022-11-11T04:41:01;20.67;;;14.25;;
63817;SDS011;53093;55.092;73.476;2022-11-11T04:43:49;20.05;;;14.18;;
63817;SDS011;53093;55.092;73.476;2022-11-11T04:46:52;21.25;;;14.50;;
63817;SDS011;53093;55.092;73.476;2022-11-11T04:49:43;20.90;;;14.02;;
63817;SDS011;53093;55.092;73.476;2022-11-11T04:52:32;19.25;;;13.98;;
63817;SDS011;53093;55.092;73.476;2022-11-11T04:55:17;19.45;;;13.43;;
63817;SDS011;53093;55.092;73.476;2022-11-11T04:58:22;19.35;;;13.63;;
63817;SDS011;53093;55.092;73.476;2022-11-11T05:01:08;19.38;;;13.77;;
63817;SDS011;53093;55.092;73.476;2022-11-11T05:03:58;19.25;;;13.13;;
63817;SDS011;53093;55.092;73.476;2022-11-11T05:06:43;18.43;;;13.93;;
63817;SDS011;53093;55.092;73.476;2022-11-11T05:09:47;19.42;;;14.18;;
63817;SDS011;53093;55.092;73.476;2022-11-11T05:12:37;17.38;;;13.05;;
63817;SDS011;53093;55.092;73.476;2022-11-11T05:15:22;18.38;;;13.32;;
63817;SDS011;53093;55.092;73.476;2022-11-11T05:18:26;18.38;;;13.48;;
63817;SDS011;53093;55.092;73.476;2022-11-11T05:21:30;18.48;;;13.20;;
63817;SDS011;53093;55.092;73.476;2022-11-11T05:24:18;17.30;;;12.70;;
63817;SDS011;53093;55.092;73.476;2022-11-11T05:27:22;17.23;;;12.10;;
63817;SDS011;53093;55.092;73.476;2022-11-11T05:32:53;17.67;;;12.32;;
63817;SDS011;53093;55.092;73.476;2022-11-11T05:35:39;17.48;;;12.48;;
63817;SDS011;53093;55.092;73.476;2022-11-11T05:38:24;18.27;;;13.05;;
63817;SDS011;53093;55.092;73.476;2022-11-11T05:41:14;18.27;;;13.02;;
63817;SDS011;53093;55.092;73.476;2022-11-11T05:44:00;19.83;;;13.35;;
63817;SDS011;53093;55.092;73.476;2022-11-11T05:46:46;18.27;;;12.95;;
63817;SDS011;53093;55.092;73.476;2022-11-11T05:49:31;20.03;;;12.13;;
63817;SDS011;53093;55.092;73.476;2022-11-11T05:52:16;18.73;;;13.45;;
63817;SDS011;53093;55.092;73.476;2022-11-11T05:55:04;19.50;;;13.10;;
63817;SDS011;53093;55.092;73.476;2022-11-11T05:57:50;20.23;;;13.73;;
63817;SDS011;53093;55.092;73.476;2022-11-11T06:00:35;20.83;;;13.65;;
63817;SDS011;53093;55.092;73.476;2022-11-11T06:03:20;21.83;;;13.77;;
63817;SDS011;53093;55.092;73.476;2022-11-11T06:06:15;20.48;;;14.45;;
63817;SDS011;53093;55.092;73.476;2022-11-11T06:09:00;23.10;;;15.20;;
63817;SDS011;53093;55.092;73.476;2022-11-11T06:14:31;20.77;;;14.80;;
63817;SDS011;53093;55.092;73.476;2022-11-11T06:17:22;21.30;;;14.85;;
63817;SDS011;53093;55.092;73.476;2022-11-11T06:20:07;23.48;;;15.68;;
63817;SDS011;53093;55.092;73.476;2022-11-11T06:22:53;22.42;;;14.95;;
63817;SDS011;53093;55.092;73.476;2022-11-11T06:25:41;21.52;;;14.57;;
63817;SDS011;53093;55.092;73.476;2022-11-11T06:28:52;20.60;;;14.77;;
63817;SDS011;53093;55.092;73.476;2022-11-11T06:31:38;22.17;;;15.38;;
63817;SDS011;53093;55.092;73.476;2022-11-11T06:34:23;22.63;;;14.77;;
63817;SDS011;53093;55.092;73.476;2022-11-11T06:37:09;30.58;;;16.92;;
63817;SDS011;53093;55.092;73.476;2022-11-11T06:40:04;23.88;;;14.80;;
63817;SDS011;53093;55.092;73.476;2022-11-11T06:42:50;24.10;;;15.63;;
63817;SDS011;53093;55.092;73.476;2022-11-11T06:45:35;22.45;;;15.23;;
63817;SDS011;53093;55.092;73.476;2022-11-11T06:48:22;25.13;;;15.65;;
63817;SDS011;53093;55.092;73.476;2022-11-11T06:51:08;24.38;;;14.95;;
63817;SDS011;53093;55.092;73.476;2022-11-11T06:53:54;23.48;;;15.00;;
63817;SDS011;53093;55.092;73.476;2022-11-11T06:56:39;21.88;;;14.55;;
63817;SDS011;53093;55.092;73.476;2022-11-11T06:59:24;19.98;;;14.20;;
63817;SDS011;53093;55.092;73.476;2022-11-11T07:02:13;19.17;;;13.27;;
63817;SDS011;53093;55.092;73.476;2022-11-11T07:04:59;23.80;;;12.77;;
63817;SDS011;53093;55.092;73.476;2022-11-11T07:10:30;17.27;;;11.68;;
63817;SDS011;53093;55.092;73.476;2022-11-11T07:13:23;19.20;;;12.68;;
63817;SDS011;53093;55.092;73.476;2022-11-11T07:16:08;24.33;;;15.15;;
63817;SDS011;53093;55.092;73.476;2022-11-11T07:18:55;31.05;;;16.98;;
63817;SDS011;53093;55.092;73.476;2022-11-11T07:21:40;31.60;;;17.50;;
63817;SDS011;53093;55.092;73.476;2022-11-11T07:24:26;33.22;;;19.73;;
63817;SDS011;53093;55.092;73.476;2022-11-11T07:27:11;33.83;;;20.73;;
63817;SDS011;53093;55.092;73.476;2022-11-11T07:29:56;37.38;;;22.40;;
63817;SDS011;53093;55.092;73.476;2022-11-11T07:32:45;40.28;;;22.83;;
63817;SDS011;53093;55.092;73.476;2022-11-11T07:35:30;42.67;;;22.10;;
63817;SDS011;53093;55.092;73.476;2022-11-11T07:38:20;42.45;;;22.65;;
63817;SDS011;53093;55.092;73.476;2022-11-11T07:41:06;43.33;;;23.13;;
63817;SDS011;53093;55.092;73.476;2022-11-11T07:43:51;44.72;;;24.95;;
63817;SDS011;53093;55.092;73.476;2022-11-11T07:46:37;43.25;;;24.83;;
63817;SDS011;53093;55.092;73.476;2022-11-11T07:49:32;38.93;;;22.37;;
63817;SDS011;53093;55.092;73.476;2022-11-11T07:52:18;40.67;;;22.10;;
63817;SDS011;53093;55.092;73.476;2022-11-11T07:55:04;35.17;;;20.80;;
63817;SDS011;53093;55.092;73.476;2022-11-11T07:57:52;31.02;;;18.70;;
63817;SDS011;53093;55.092;73.476;2022-11-11T08:00:37;29.00;;;16.30;;
63817;SDS011;53093;55.092;73.476;2022-11-11T08:03:23;28.52;;;16.10;;
63817;SDS011;53093;55.092;73.476;2022-11-11T08:06:08;23.58;;;14.95;;
63817;SDS011;53093;55.092;73.476;2022-11-11T08:08:54;20.92;;;13.90;;
63817;SDS011;53093;55.092;73.476;2022-11-11T08:11:39;22.50;;;14.95;;
63817;SDS011;53093;55.092;73.476;2022-11-11T08:14:46;20.98;;;14.02;;
63817;SDS011;53093;55.092;73.476;2022-11-11T08:17:39;19.90;;;13.23;;
63817;SDS011;53093;55.092;73.476;2022-11-11T08:20:25;20.95;;;14.27;;
63817;SDS011;53093;55.092;73.476;2022-11-11T08:23:10;22.58;;;13.68;;
63817;SDS011;53093;55.092;73.476;2022-11-11T08:26:02;22.00;;;13.88;;
63817;SDS011;53093;55.092;73.476;2022-11-11T08:28:48;22.50;;;14.00;;
63817;SDS011;53093;55.092;73.476;2022-11-11T08:31:35;21.15;;;14.10;;
63817;SDS011;53093;55.092;73.476;2022-11-11T08:34:20;21.45;;;14.02;;
63817;SDS011;53093;55.092;73.476;2022-11-11T08:37:05;30.30;;;19.33;;
63817;SDS011;53093;55.092;73.476;2022-11-11T08:39:51;28.08;;;17.45;;
63817;SDS011;53093;55.092;73.476;2022-11-11T08:42:36;26.02;;;17.00;;
63817;SDS011;53093;55.092;73.476;2022-11-11T08:45:22;24.48;;;16.17;;
63817;SDS011;53093;55.092;73.476;2022-11-11T08:48:08;30.70;;;19.67;;
63817;SDS011;53093;55.092;73.476;2022-11-11T08:50:54;25.60;;;16.58;;
63817;SDS011;53093;55.092;73.476;2022-11-11T08:53:40;25.77;;;15.60;;
63817;SDS011;53093;55.092;73.476;2022-11-11T08:56:25;27.10;;;16.83;;
63817;SDS011;53093;55.092;73.476;2022-11-11T09:01:56;27.52;;;16.40;;
63817;SDS011;53093;55.092;73.476;2022-11-11T09:04:41;28.63;;;16.90;;
63817;SDS011;53093;55.092;73.476;2022-11-11T09:07:30;28.33;;;17.42;;
63817;SDS011;53093;55.092;73.476;2022-11-11T09:10:15;28.60;;;17.98;;
63817;SDS011;53093;55.092;73.476;2022-11-11T09:13:01;29.27;;;17.05;;
63817;SDS011;53093;55.092;73.476;2022-11-11T09:15:47;31.00;;;17.30;;
63817;SDS011;53093;55.092;73.476;2022-11-11T09:18:32;26.88;;;16.73;;
63817;SDS011;53093;55.092;73.476;2022-11-11T09:21:17;26.55;;;16.95;;
63817;SDS011;53093;55.092;73.476;2022-11-11T09:24:06;28.80;;;16.63;;
63817;SDS011;53093;55.092;73.476;2022-11-11T09:26:51;30.77;;;17.40;;
63817;SDS011;53093;55.092;73.476;2022-11-11T09:29:44;32.05;;;19.27;;
63817;SDS011;53093;55.092;73.476;2022-11-11T09:32:29;37.55;;;22.77;;
63817;SDS011;53093;55.092;73.476;2022-11-11T09:35:19;36.47;;;22.88;;
63817;SDS011;53093;55.092;73.476;2022-11-11T09:38:04;45.53;;;30.83;;
63817;SDS011;53093;55.092;73.476;2022-11-11T09:43:57;45.67;;;30.70;;
63817;SDS011;53093;55.092;73.476;2022-11-11T09:46:58;37.25;;;24.60;;
63817;SDS011;53093;55.092;73.476;2022-11-11T09:50:01;40.63;;;27.60;;
63817;SDS011;53093;55.092;73.476;2022-11-11T09:53:23;43.92;;;28.05;;
63817;SDS011;53093;55.092;73.476;2022-11-11T09:56:00;46.15;;;28.27;;
63817;SDS011;53093;55.092;73.476;2022-11-11T09:58:50;34.63;;;20.48;;
63817;SDS011;53093;55.092;73.476;2022-11-11T10:01:38;33.25;;;19.63;;
63817;SDS011;53093;55.092;73.476;2022-11-11T10:04:36;31.40;;;18.80;;
63817;SDS011;53093;55.092;73.476;2022-11-11T10:07:25;32.72;;;18.75;;
63817;SDS011;53093;55.092;73.476;2022-11-11T10:10:22;35.40;;;19.02;;
63817;SDS011;53093;55.092;73.476;2022-11-11T10:13:14;31.63;;;18.63;;
63817;SDS011;53093;55.092;73.476;2022-11-11T10:19:02;30.85;;;18.40;;
63817;SDS011;53093;55.092;73.476;2022-11-11T10:21:59;30.05;;;18.02;;
63817;SDS011;53093;55.092;73.476;2022-11-11T10:24:48;29.83;;;17.90;;
63817;SDS011;53093;55.092;73.476;2022-11-11T10:27:40;28.73;;;17.70;;
63817;SDS011;53093;55.092;73.476;2022-11-11T10:30:36;27.67;;;18.05;;
63817;SDS011;53093;55.092;73.476;2022-11-11T10:33:28;27.98;;;17.30;;
63817;SDS011;53093;55.092;73.476;2022-11-11T10:36:19;29.42;;;18.35;;
63817;SDS011;53093;55.092;73.476;2022-11-11T10:39:04;31.80;;;18.70;;
63817;SDS011;53093;55.092;73.476;2022-11-11T10:41:50;29.88;;;19.23;;
63817;SDS011;53093;55.092;73.476;2022-11-11T10:44:36;31.55;;;19.63;;
63817;SDS011;53093;55.092;73.476;2022-11-11T10:56:18;26.27;;;18.08;;
63817;SDS011;53093;55.092;73.476;2022-11-11T10:59:08;24.55;;;16.48;;
63817;SDS011;53093;55.092;73.476;2022-11-11T11:01:59;23.80;;;16.42;;
63817;SDS011;53093;55.092;73.476;2022-11-11T11:04:49;23.98;;;17.08;;
63817;SDS011;53093;55.092;73.476;2022-11-11T11:07:40;26.58;;;18.00;;
63817;SDS011;53093;55.092;73.476;2022-11-11T11:10:35;28.15;;;18.55;;
63817;SDS011;53093;55.092;73.476;2022-11-11T11:16:12;27.25;;;19.00;;
63817;SDS011;53093;55.092;73.476;2022-11-11T11:19:14;30.30;;;19.23;;
63817;SDS011;53093;55.092;73.476;2022-11-11T11:22:02;25.60;;;16.83;;
63817;SDS011;53093;55.092;73.476;2022-11-11T11:27:33;25.70;;;16.92;;
63817;SDS011;53093;55.092;73.476;2022-11-11T11:30:20;24.52;;;17.20;;
63817;SDS011;53093;55.092;73.476;2022-11-11T11:33:06;25.38;;;17.15;;
63817;SDS011;53093;55.092;73.476;2022-11-11T11:35:52;29.42;;;17.83;;
63817;SDS011;53093;55.092;73.476;2022-11-11T11:38:41;27.13;;;18.10;;
63817;SDS011;53093;55.092;73.476;2022-11-11T11:44:29;29.60;;;18.02;;
63817;SDS011;53093;55.092;73.476;2022-11-11T11:47:25;28.33;;;18.67;;
63817;SDS011;53093;55.092;73.476;2022-11-11T11:53:33;30.00;;;18.27;;
63817;SDS011;53093;55.092;73.476;2022-11-11T11:56:26;29.23;;;18.95;;
63817;SDS011;53093;55.092;73.476;2022-11-11T11:59:27;29.92;;;20.25;;
63817;SDS011;53093;55.092;73.476;2022-11-11T12:02:24;32.92;;;21.42;;
63817;SDS011;53093;55.092;73.476;2022-11-11T12:14:26;31.15;;;18.95;;
63817;SDS011;53093;55.092;73.476;2022-11-11T12:38:47;51.45;;;24.98;;
63817;SDS011;53093;55.092;73.476;2022-11-11T12:44:54;45.60;;;24.70;;
63817;SDS011;53093;55.092;73.476;2022-11-11T12:48:04;43.35;;;23.77;;
63817;SDS011;53093;55.092;73.476;2022-11-11T12:50:52;46.50;;;23.92;;
63817;SDS011;53093;55.092;73.476;2022-11-11T13:05:48;45.65;;;21.45;;
63817;SDS011;53093;55.092;73.476;2022-11-11T13:08:57;52.00;;;23.70;;
63817;SDS011;53093;55.092;73.476;2022-11-11T13:11:55;49.83;;;23.63;;
63817;SDS011;53093;55.092;73.476;2022-11-11T13:17:46;50.05;;;24.98;;
63817;SDS011;53093;55.092;73.476;2022-11-11T13:23:30;50.20;;;24.80;;
63817;SDS011;53093;55.092;73.476;2022-11-11T13:26:24;49.78;;;25.00;;
63817;SDS011;53093;55.092;73.476;2022-11-11T13:32:05;53.90;;;26.13;;
63817;SDS011;53093;55.092;73.476;2022-11-11T13:34:54;58.13;;;26.58;;
63817;SDS011;53093;55.092;73.476;2022-11-11T13:37:49;52.72;;;25.65;;
63817;SDS011;53093;55.092;73.476;2022-11-11T13:40:39;51.58;;;24.40;;
63817;SDS011;53093;55.092;73.476;2022-11-11T13:43:46;59.38;;;24.77;;
63817;SDS011;53093;55.092;73.476;2022-11-11T13:46:40;55.97;;;24.45;;
63817;SDS011;53093;55.092;73.476;2022-11-11T13:49:35;63.03;;;24.08;;
63817;SDS011;53093;55.092;73.476;2022-11-11T13:52:30;72.32;;;24.17;;
63817;SDS011;53093;55.092;73.476;2022-11-11T13:55:31;72.22;;;26.13;;
63817;SDS011;53093;55.092;73.476;2022-11-11T13:58:36;68.78;;;26.10;;
63817;SDS011;53093;55.092;73.476;2022-11-11T14:01:34;80.10;;;25.20;;
63817;SDS011;53093;55.092;73.476;2022-11-11T14:04:27;74.00;;;27.20;;
63817;SDS011;53093;55.092;73.476;2022-11-11T14:16:10;72.97;;;28.50;;
63817;SDS011;53093;55.092;73.476;2022-11-11T14:22:27;70.30;;;28.00;;
63817;SDS011;53093;55.092;73.476;2022-11-11T14:25:26;63.58;;;27.35;;
63817;SDS011;53093;55.092;73.476;2022-11-11T14:28:21;71.07;;;28.23;;
63817;SDS011;53093;55.092;73.476;2022-11-11T14:37:14;68.63;;;30.65;;
63817;SDS011;53093;55.092;73.476;2022-11-11T14:40:02;68.75;;;29.67;;
63817;SDS011;53093;55.092;73.476;2022-11-11T14:57:57;62.90;;;30.38;;
63817;SDS011;53093;55.092;73.476;2022-11-11T15:00:55;57.65;;;27.92;;
63817;SDS011;53093;55.092;73.476;2022-11-11T15:03:48;53.95;;;27.67;;
63817;SDS011;53093;55.092;73.476;2022-11-11T15:06:58;46.83;;;27.35;;
63817;SDS011;53093;55.092;73.476;2022-11-11T15:10:03;45.55;;;25.02;;
63817;SDS011;53093;55.092;73.476;2022-11-11T15:21:38;37.28;;;23.77;;
63817;SDS011;53093;55.092;73.476;2022-11-11T15:37:04;30.83;;;21.85;;
63817;SDS011;53093;55.092;73.476;2022-11-11T15:39:51;29.73;;;20.88;;
63817;SDS011;53093;55.092;73.476;2022-11-11T15:42:47;31.67;;;20.40;;
63817;SDS011;53093;55.092;73.476;2022-11-11T15:45:36;29.02;;;19.90;;
63817;SDS011;53093;55.092;73.476;2022-11-11T15:48:33;28.67;;;19.48;;
63817;SDS011;53093;55.092;73.476;2022-11-11T15:54:20;28.02;;;19.88;;
63817;SDS011;53093;55.092;73.476;2022-11-11T16:03:19;25.70;;;17.60;;
63817;SDS011;53093;55.092;73.476;2022-11-11T16:06:09;24.35;;;17.13;;
63817;SDS011;53093;55.092;73.476;2022-11-11T16:09:03;26.27;;;17.58;;
63817;SDS011;53093;55.092;73.476;2022-11-11T16:11:53;26.75;;;17.98;;
63817;SDS011;53093;55.092;73.476;2022-11-11T16:14:40;26.17;;;17.95;;
63817;SDS011;53093;55.092;73.476;2022-11-11T16:17:29;26.50;;;17.85;;
63817;SDS011;53093;55.092;73.476;2022-11-11T16:20:24;27.08;;;18.02;;
63817;SDS011;53093;55.092;73.476;2022-11-11T16:23:15;24.52;;;17.55;;
63817;SDS011;53093;55.092;73.476;2022-11-11T16:26:01;24.95;;;17.88;;
63817;SDS011;53093;55.092;73.476;2022-11-11T16:28:54;26.05;;;18.25;;
63817;SDS011;53093;55.092;73.476;2022-11-11T16:31:44;25.92;;;18.13;;
63817;SDS011;53093;55.092;73.476;2022-11-11T16:34:31;27.35;;;18.05;;
63817;SDS011;53093;55.092;73.476;2022-11-11T16:37:23;27.02;;;17.98;;
63817;SDS011;53093;55.092;73.476;2022-11-11T16:40:27;25.60;;;17.23;;
63817;SDS011;53093;55.092;73.476;2022-11-11T16:46:13;26.00;;;17.17;;
63817;SDS011;53093;55.092;73.476;2022-11-11T16:48:59;27.60;;;18.38;;
63817;SDS011;53093;55.092;73.476;2022-11-11T16:51:51;31.00;;;20.10;;
63817;SDS011;53093;55.092;73.476;2022-11-11T16:54:39;39.17;;;23.52;;
63817;SDS011;53093;55.092;73.476;2022-11-11T16:57:42;38.63;;;22.85;;
63817;SDS011;53093;55.092;73.476;2022-11-11T17:00:28;34.30;;;20.88;;
63817;SDS011;53093;55.092;73.476;2022-11-11T17:03:15;33.28;;;20.67;;
63817;SDS011;53093;55.092;73.476;2022-11-11T17:06:01;33.42;;;20.38;;
63817;SDS011;53093;55.092;73.476;2022-11-11T17:09:20;32.33;;;19.27;;
63817;SDS011;53093;55.092;73.476;2022-11-11T17:12:10;35.35;;;22.25;;
63817;SDS011;53093;55.092;73.476;2022-11-11T17:14:57;38.95;;;22.88;;
63817;SDS011;53093;55.092;73.476;2022-11-11T17:17:42;37.10;;;22.43;;
63817;SDS011;53093;55.092;73.476;2022-11-11T17:20:28;40.20;;;22.80;;
63817;SDS011;53093;55.092;73.476;2022-11-11T17:23:14;36.75;;;21.92;;
63817;SDS011;53093;55.092;73.476;2022-11-11T17:26:00;32.70;;;19.65;;
63817;SDS011;53093;55.092;73.476;2022-11-11T17:28:55;33.77;;;19.43;;
63817;SDS011;53093;55.092;73.476;2022-11-11T17:31:43;35.00;;;19.02;;
63817;SDS011;53093;55.092;73.476;2022-11-11T17:34:29;32.50;;;18.08;;
63817;SDS011;53093;55.092;73.476;2022-11-11T17:37:15;31.55;;;17.95;;
63817;SDS011;53093;55.092;73.476;2022-11-11T17:40:13;33.90;;;18.35;;
63817;SDS011;53093;55.092;73.476;2022-11-11T17:43:03;31.45;;;17.35;;
63817;SDS011;53093;55.092;73.476;2022-11-11T17:45:52;33.40;;;18.58;;
63817;SDS011;53093;55.092;73.476;2022-11-11T17:48:38;38.65;;;19.23;;
63817;SDS011;53093;55.092;73.476;2022-11-11T17:51:24;39.08;;;22.08;;
63817;SDS011;53093;55.092;73.476;2022-11-11T17:54:09;43.33;;;21.83;;
63817;SDS011;53093;55.092;73.476;2022-11-11T17:56:59;42.78;;;22.13;;
63817;SDS011;53093;55.092;73.476;2022-11-11T17:59:44;36.90;;;19.33;;
63817;SDS011;53093;55.092;73.476;2022-11-11T18:02:30;38.33;;;20.40;;
63817;SDS011;53093;55.092;73.476;2022-11-11T18:05:15;30.60;;;17.40;;
63817;SDS011;53093;55.092;73.476;2022-11-11T18:10:47;31.97;;;16.93;;
63817;SDS011;53093;55.092;73.476;2022-11-11T18:13:33;32.03;;;16.98;;
63817;SDS011;53093;55.092;73.476;2022-11-11T18:16:19;31.55;;;17.67;;
63817;SDS011;53093;55.092;73.476;2022-11-11T18:19:04;31.42;;;17.33;;
63817;SDS011;53093;55.092;73.476;2022-11-11T18:21:50;35.25;;;18.13;;
63817;SDS011;53093;55.092;73.476;2022-11-11T18:24:35;37.15;;;20.35;;
63817;SDS011;53093;55.092;73.476;2022-11-11T18:27:20;34.78;;;19.92;;
63817;SDS011;53093;55.092;73.476;2022-11-11T18:30:06;39.85;;;20.85;;
63817;SDS011;53093;55.092;73.476;2022-11-11T18:32:51;33.33;;;19.23;;
63817;SDS011;53093;55.092;73.476;2022-11-11T18:35:47;35.50;;;19.15;;
63817;SDS011;53093;55.092;73.476;2022-11-11T18:38:32;26.73;;;16.45;;
63817;SDS011;53093;55.092;73.476;2022-11-11T18:41:19;28.40;;;16.40;;
63817;SDS011;53093;55.092;73.476;2022-11-11T18:44:04;22.02;;;13.80;;
63817;SDS011;53093;55.092;73.476;2022-11-11T18:46:50;21.48;;;13.23;;
63817;SDS011;53093;55.092;73.476;2022-11-11T18:49:35;17.75;;;11.88;;
63817;SDS011;53093;55.092;73.476;2022-11-11T18:52:20;18.88;;;11.48;;
63817;SDS011;53093;55.092;73.476;2022-11-11T18:55:05;18.17;;;12.10;;
63817;SDS011;53093;55.092;73.476;2022-11-11T18:57:51;16.45;;;10.98;;
63817;SDS011;53093;55.092;73.476;2022-11-11T19:00:43;16.55;;;11.38;;
63817;SDS011;53093;55.092;73.476;2022-11-11T19:03:28;16.75;;;10.93;;
63817;SDS011;53093;55.092;73.476;2022-11-11T19:06:14;15.25;;;10.10;;
63817;SDS011;53093;55.092;73.476;2022-11-11T19:09:02;14.32;;;10.65;;
63817;SDS011;53093;55.092;73.476;2022-11-11T19:11:54;16.67;;;10.82;;